createdAt,value
2019-03-16T00:02:00.132Z,4.00
2019-03-16T00:04:27.183Z,2.87
2019-03-16T00:06:54.175Z,3.17
2019-03-16T00:09:21.174Z,4.62
2019-03-16T00:11:48.405Z,3.22
2019-03-16T00:14:16.682Z,2.70
2019-03-16T00:16:43.767Z,3.10
2019-03-16T00:19:10.860Z,3.17
2019-03-16T00:21:37.941Z,2.77
2019-03-16T00:24:05.102Z,2.55
2019-03-16T00:26:32.045Z,3.92
2019-03-16T00:28:59.090Z,3.95
2019-03-16T00:31:26.359Z,4.00
2019-03-16T00:33:53.590Z,3.25
2019-03-16T00:36:20.744Z,3.35
2019-03-16T00:38:47.751Z,3.65
2019-03-16T00:41:15.860Z,3.50
2019-03-16T00:43:42.837Z,3.08
2019-03-16T00:46:10.264Z,3.08
2019-03-16T00:48:37.583Z,3.40
2019-03-16T00:51:04.570Z,3.85
2019-03-16T00:53:31.644Z,3.22
2019-03-16T00:55:58.630Z,4.20
2019-03-16T00:58:26.256Z,2.92
2019-03-16T01:00:53.507Z,3.67
2019-03-16T01:03:20.830Z,4.00
2019-03-16T01:05:47.810Z,4.08
2019-03-16T01:08:14.886Z,4.35
2019-03-16T01:10:42.201Z,3.42
2019-03-16T01:13:09.630Z,3.80
2019-03-16T01:15:37.087Z,3.47
2019-03-16T01:18:04.257Z,2.85
2019-03-16T01:20:31.655Z,3.42
2019-03-16T01:22:58.844Z,3.72
2019-03-16T01:25:25.833Z,3.75
2019-03-16T01:27:53.042Z,3.17
2019-03-16T01:30:20.120Z,3.35
2019-03-16T01:32:47.438Z,3.60
2019-03-16T01:35:14.916Z,2.87
2019-03-16T01:37:42.265Z,3.83
2019-03-16T01:40:09.492Z,3.22
2019-03-16T01:42:37.077Z,3.00
2019-03-16T01:45:04.449Z,3.83
2019-03-16T01:47:31.442Z,4.60
2019-03-16T01:49:58.491Z,3.55
2019-03-16T01:52:25.509Z,3.47
2019-03-16T01:54:52.835Z,2.95
2019-03-16T01:57:20.191Z,3.10
2019-03-16T01:59:47.511Z,3.35
2019-03-16T02:02:15.106Z,3.42
2019-03-16T02:04:42.071Z,2.72
2019-03-16T02:07:10.174Z,3.55
2019-03-16T02:09:37.274Z,3.12
2019-03-16T02:12:04.442Z,3.62
2019-03-16T02:14:31.411Z,2.95
2019-03-16T02:16:58.739Z,3.25
2019-03-16T02:19:25.738Z,3.25
2019-03-16T02:21:52.923Z,3.17
2019-03-16T02:24:20.345Z,3.30
2019-03-16T02:26:47.431Z,3.58
2019-03-16T02:29:14.426Z,3.92
2019-03-16T02:31:41.433Z,3.27
2019-03-16T02:34:08.778Z,4.08
2019-03-16T02:36:37.638Z,3.50
2019-03-16T02:39:05.439Z,3.67
2019-03-16T02:41:32.477Z,3.05
2019-03-16T02:43:59.805Z,3.37
2019-03-16T02:46:27.171Z,5.15
2019-03-16T02:48:54.259Z,4.17
2019-03-16T02:51:21.604Z,3.15
2019-03-16T02:53:48.686Z,2.95
2019-03-16T02:56:16.041Z,3.40
2019-03-16T02:58:43.083Z,3.50
2019-03-16T03:01:10.168Z,3.55
2019-03-16T03:03:37.286Z,4.15
2019-03-16T03:06:04.439Z,3.02
2019-03-16T03:08:31.522Z,3.65
2019-03-16T03:10:58.660Z,3.08
2019-03-16T03:13:25.723Z,3.58
2019-03-16T03:15:52.803Z,3.67
2019-03-16T03:18:19.788Z,3.33
2019-03-16T03:20:46.795Z,3.95
2019-03-16T03:23:14.101Z,2.72
2019-03-16T03:25:41.171Z,3.65
2019-03-16T03:28:08.454Z,4.60
2019-03-16T03:30:35.639Z,3.52
2019-03-16T03:33:03.077Z,3.60
2019-03-16T03:35:30.452Z,3.60
2019-03-16T03:37:58.562Z,4.75
2019-03-16T03:40:25.586Z,3.80
2019-03-16T03:42:52.669Z,3.62
2019-03-16T03:45:19.917Z,3.90
2019-03-16T03:47:46.884Z,3.47
2019-03-16T03:50:14.023Z,3.50
2019-03-16T03:52:41.463Z,3.33
2019-03-16T03:55:09.030Z,3.85
2019-03-16T03:57:37.536Z,3.75
2019-03-16T04:00:05.495Z,3.65
2019-03-16T04:02:32.953Z,3.67
2019-03-16T04:05:00.487Z,3.10
2019-03-16T04:07:28.196Z,3.90
2019-03-16T04:09:55.268Z,3.50
2019-03-16T04:12:22.696Z,3.45
2019-03-16T04:14:50.083Z,3.02
2019-03-16T04:17:17.109Z,3.90
2019-03-16T04:19:44.132Z,4.33
2019-03-16T04:22:11.402Z,3.35
2019-03-16T04:24:38.611Z,4.37
2019-03-16T04:27:15.787Z,5.35
2019-03-16T04:29:34.859Z,3.70
2019-03-16T04:32:02.130Z,3.30
2019-03-16T04:34:29.986Z,3.30
2019-03-16T04:36:57.510Z,3.10
2019-03-16T04:39:24.531Z,3.83
2019-03-16T04:41:51.519Z,3.92
2019-03-16T04:44:18.655Z,3.98
2019-03-16T04:46:46.039Z,3.12
2019-03-16T04:49:13.332Z,2.83
2019-03-16T04:51:40.359Z,3.60
2019-03-16T04:54:07.562Z,3.30
2019-03-16T04:56:34.575Z,3.05
2019-03-16T04:59:01.972Z,3.70
2019-03-16T05:01:29.066Z,3.60
2019-03-16T05:03:56.494Z,3.17
2019-03-16T05:06:23.554Z,3.35
2019-03-16T05:08:51.275Z,3.72
2019-03-16T05:11:18.575Z,2.87
2019-03-16T05:13:45.568Z,4.90
2019-03-16T05:16:14.214Z,3.60
2019-03-16T05:18:41.314Z,4.30
2019-03-16T05:21:08.276Z,3.00
2019-03-16T05:23:36.418Z,3.37
2019-03-16T05:26:03.855Z,4.20
2019-03-16T05:28:31.433Z,3.25
2019-03-16T05:30:58.391Z,3.87
2019-03-16T05:33:25.846Z,3.27
2019-03-16T05:35:52.949Z,3.72
2019-03-16T05:38:19.935Z,3.08
2019-03-16T05:40:46.972Z,3.83
2019-03-16T05:43:14.043Z,3.92
2019-03-16T05:45:41.418Z,3.05
2019-03-16T05:48:09.857Z,3.12
2019-03-16T05:50:36.867Z,2.92
2019-03-16T05:53:04.082Z,3.12
2019-03-16T05:55:31.078Z,4.37
2019-03-16T05:57:58.183Z,3.40
2019-03-16T06:00:25.170Z,3.47
2019-03-16T06:02:52.297Z,3.72
2019-03-16T06:05:19.387Z,2.85
2019-03-16T06:07:46.364Z,3.52
2019-03-16T06:10:13.522Z,6.55
2019-03-16T06:12:40.502Z,3.15
2019-03-16T06:15:07.898Z,3.90
2019-03-16T06:17:34.961Z,3.35
2019-03-16T06:20:02.520Z,3.77
2019-03-16T06:22:29.870Z,3.33
2019-03-16T06:24:56.945Z,2.65
2019-03-16T06:27:24.373Z,3.17
2019-03-16T06:29:51.372Z,3.42
2019-03-16T06:32:19.484Z,3.15
2019-03-16T06:34:46.788Z,3.92
2019-03-16T06:37:13.778Z,5.42
2019-03-16T06:39:40.923Z,3.75
2019-03-16T06:42:07.907Z,4.15
2019-03-16T06:44:35.211Z,4.60
2019-03-16T06:47:03.469Z,3.10
2019-03-16T06:49:30.457Z,2.22
2019-03-16T06:51:57.471Z,3.52
2019-03-16T06:54:24.977Z,7.22
2019-03-16T06:56:52.108Z,3.95
2019-03-16T06:59:19.420Z,2.72
2019-03-16T07:01:46.505Z,7.92
2019-03-16T07:04:13.659Z,2.62
2019-03-16T07:06:40.842Z,2.47
2019-03-16T07:09:08.297Z,3.60
2019-03-16T07:11:36.632Z,3.62
2019-03-16T07:14:03.919Z,2.75
2019-03-16T07:16:31.441Z,3.90
2019-03-16T07:18:59.258Z,2.35
2019-03-16T07:21:26.730Z,3.27
2019-03-16T07:23:54.184Z,2.92
2019-03-16T07:26:21.862Z,2.45
2019-03-16T07:28:49.013Z,2.95
2019-03-16T07:31:16.106Z,2.47
2019-03-16T07:33:43.204Z,2.90
2019-03-16T07:36:10.564Z,2.67
2019-03-16T07:38:37.590Z,2.65
2019-03-16T07:41:04.699Z,3.05
2019-03-16T07:43:32.087Z,3.15
2019-03-16T07:45:59.108Z,2.30
2019-03-16T07:48:26.465Z,3.33
2019-03-16T07:50:53.838Z,2.95
2019-03-16T07:53:20.971Z,3.00
2019-03-16T07:55:48.345Z,2.95
2019-03-16T07:58:15.463Z,2.10
2019-03-16T08:00:43.170Z,3.15
2019-03-16T08:03:10.231Z,2.70
2019-03-16T08:05:37.335Z,2.77
2019-03-16T08:08:04.618Z,2.95
2019-03-16T08:10:31.685Z,3.62
2019-03-16T08:12:59.127Z,3.42
2019-03-16T08:15:28.107Z,2.87
2019-03-16T08:17:55.787Z,3.30
2019-03-16T08:20:22.904Z,3.20
2019-03-16T08:22:50.031Z,3.45
2019-03-16T08:25:17.207Z,2.47
2019-03-16T08:27:54.010Z,2.90
2019-03-16T08:30:13.480Z,3.30
2019-03-16T08:32:41.041Z,2.08
2019-03-16T08:35:08.377Z,2.67
2019-03-16T08:37:35.747Z,3.92
2019-03-16T08:40:03.291Z,2.95
2019-03-16T08:42:30.379Z,3.35
2019-03-16T08:44:57.415Z,3.77
2019-03-16T08:47:24.774Z,3.00
2019-03-16T08:49:52.109Z,2.92
2019-03-16T08:52:19.143Z,3.55
2019-03-16T08:54:46.592Z,2.30
2019-03-16T08:57:13.895Z,3.20
2019-03-16T08:59:40.890Z,2.25
2019-03-16T09:02:07.934Z,2.75
2019-03-16T09:04:34.922Z,3.75
2019-03-16T09:07:02.055Z,3.70
2019-03-16T09:09:29.136Z,3.05
2019-03-16T09:11:58.335Z,2.20
2019-03-16T09:14:25.003Z,2.60
2019-03-16T09:16:52.091Z,2.75
2019-03-16T09:19:19.095Z,2.87
2019-03-16T09:21:46.359Z,2.47
2019-03-16T09:24:13.352Z,2.58
2019-03-16T09:26:40.467Z,2.30
2019-03-16T09:29:14.772Z,3.52
2019-03-16T09:31:36.442Z,1.98
2019-03-16T09:34:03.525Z,3.22
2019-03-16T09:36:30.625Z,3.05
2019-03-16T09:38:57.619Z,2.45
2019-03-16T09:41:25.035Z,2.62
2019-03-16T09:43:52.084Z,2.12
2019-03-16T09:46:19.091Z,2.00
2019-03-16T09:48:46.153Z,2.33
2019-03-16T09:51:13.852Z,2.05
2019-03-16T09:53:41.154Z,2.25
2019-03-16T09:56:08.181Z,2.60
2019-03-16T09:58:35.230Z,3.02
2019-03-16T10:01:02.426Z,2.92
2019-03-16T10:03:30.925Z,2.80
2019-03-16T10:05:58.028Z,2.90
2019-03-16T10:08:25.731Z,2.70
2019-03-16T10:10:52.851Z,2.52
2019-03-16T10:13:20.485Z,3.47
2019-03-16T10:15:47.930Z,2.62
2019-03-16T10:18:15.322Z,2.83
2019-03-16T10:20:42.339Z,2.80
2019-03-16T10:23:09.391Z,2.70
2019-03-16T10:25:36.503Z,2.58
2019-03-16T10:28:04.051Z,2.50
2019-03-16T10:30:31.049Z,2.12
2019-03-16T10:32:58.042Z,2.45
2019-03-16T10:35:25.146Z,2.58
2019-03-16T10:37:52.109Z,2.30
2019-03-16T10:40:19.358Z,3.40
2019-03-16T10:42:46.662Z,3.12
2019-03-16T10:45:14.026Z,3.50
2019-03-16T10:47:41.053Z,3.95
2019-03-16T10:50:08.462Z,3.42
2019-03-16T10:52:35.489Z,3.40
2019-03-16T10:55:02.667Z,2.58
2019-03-16T10:57:30.315Z,2.80
2019-03-16T10:59:57.313Z,2.30
2019-03-16T11:02:24.650Z,3.08
2019-03-16T11:04:51.651Z,2.92
2019-03-16T11:07:19.009Z,1.98
2019-03-16T11:09:46.163Z,2.33
2019-03-16T11:12:13.240Z,2.05
2019-03-16T11:14:41.261Z,1.62
2019-03-16T11:17:08.737Z,2.00
2019-03-16T11:19:35.747Z,2.08
2019-03-16T11:22:02.739Z,1.77
2019-03-16T11:24:29.782Z,1.87
2019-03-16T11:26:56.930Z,2.85
2019-03-16T11:29:25.460Z,2.70
2019-03-16T11:31:52.451Z,2.92
2019-03-16T11:34:19.499Z,2.10
2019-03-16T11:36:46.506Z,1.60
2019-03-16T11:39:13.516Z,1.60
2019-03-16T11:41:40.753Z,1.37
2019-03-16T11:44:07.875Z,1.37
2019-03-16T11:46:35.245Z,1.72
2019-03-16T11:49:02.225Z,1.35
2019-03-16T11:51:29.271Z,0.90
2019-03-16T11:53:56.330Z,1.10
2019-03-16T11:56:23.430Z,1.30
2019-03-16T11:58:50.787Z,1.10
2019-03-16T12:01:18.176Z,0.98
2019-03-16T12:03:45.237Z,2.85
2019-03-16T12:06:12.531Z,1.70
2019-03-16T12:08:39.863Z,1.45
2019-03-16T12:11:07.024Z,1.00
2019-03-16T12:13:34.335Z,1.00
2019-03-16T12:16:01.971Z,1.20
2019-03-16T12:18:29.789Z,1.10
2019-03-16T12:20:56.966Z,0.90
2019-03-16T12:23:24.280Z,0.90
2019-03-16T12:25:51.394Z,0.80
2019-03-16T12:28:18.755Z,1.05
2019-03-16T12:30:45.905Z,1.10
2019-03-16T12:33:13.059Z,0.98
2019-03-16T12:35:40.332Z,1.10
2019-03-16T12:38:07.755Z,1.10
2019-03-16T12:40:34.881Z,1.00
2019-03-16T12:43:02.565Z,1.57
2019-03-16T12:45:29.749Z,1.72
2019-03-16T12:47:56.876Z,0.90
2019-03-16T12:50:24.319Z,1.10
2019-03-16T12:52:51.818Z,1.20
2019-03-16T12:55:20.564Z,1.02
2019-03-16T12:57:48.398Z,0.98
2019-03-16T13:00:15.960Z,0.72
2019-03-16T13:02:44.617Z,0.80
2019-03-16T13:05:11.846Z,0.98
2019-03-16T13:07:38.954Z,0.80
2019-03-16T13:10:08.891Z,0.90
2019-03-16T13:12:39.042Z,0.90
2019-03-16T13:15:05.880Z,0.80
2019-03-16T13:17:33.613Z,0.93
2019-03-16T13:20:01.383Z,0.85
2019-03-16T13:22:28.874Z,0.85
2019-03-16T13:24:56.334Z,0.85
2019-03-16T13:27:23.343Z,1.12
2019-03-16T13:29:58.880Z,1.17
2019-03-16T13:32:19.274Z,1.15
2019-03-16T13:34:46.730Z,1.10
2019-03-16T13:37:13.835Z,1.15
2019-03-16T13:39:41.029Z,1.17
2019-03-16T13:42:08.138Z,1.15
2019-03-16T13:44:35.261Z,0.98
2019-03-16T13:47:02.303Z,1.30
2019-03-16T13:49:29.396Z,1.10
2019-03-16T13:51:57.291Z,0.98
2019-03-16T13:54:24.638Z,0.95
2019-03-16T13:56:51.809Z,1.10
2019-03-16T13:59:19.252Z,1.32
2019-03-16T14:01:46.991Z,1.80
2019-03-16T14:04:14.027Z,1.32
2019-03-16T14:06:41.768Z,1.27
2019-03-16T14:09:09.415Z,1.45
2019-03-16T14:11:36.450Z,1.35
2019-03-16T14:14:03.572Z,1.45
2019-03-16T14:16:30.650Z,1.67
2019-03-16T14:18:58.177Z,1.70
2019-03-16T14:21:25.378Z,1.52
2019-03-16T14:23:52.657Z,1.80
2019-03-16T14:26:20.006Z,2.15
2019-03-16T14:28:47.223Z,3.10
2019-03-16T14:31:14.712Z,2.60
2019-03-16T14:33:41.795Z,2.75
2019-03-16T14:36:09.411Z,2.65
2019-03-16T14:38:37.082Z,2.22
2019-03-16T14:41:04.434Z,1.90
2019-03-16T14:43:35.363Z,2.30
2019-03-16T14:46:02.995Z,2.22
2019-03-16T14:48:30.039Z,2.50
2019-03-16T14:50:57.271Z,2.27
2019-03-16T14:53:24.414Z,2.37
2019-03-16T14:55:51.481Z,2.80
2019-03-16T14:58:19.663Z,2.37
2019-03-16T15:00:46.710Z,2.55
2019-03-16T15:03:13.946Z,2.80
2019-03-16T15:05:41.179Z,2.80
2019-03-16T15:08:08.578Z,2.90
2019-03-16T15:10:35.804Z,3.40
2019-03-16T15:13:02.991Z,3.60
2019-03-16T15:15:30.054Z,3.35
2019-03-16T15:17:57.265Z,5.33
2019-03-16T15:20:24.347Z,5.90
2019-03-16T15:22:53.499Z,7.05
2019-03-16T15:25:20.868Z,7.22
2019-03-16T15:27:48.027Z,8.75
2019-03-16T15:30:15.271Z,7.30
2019-03-16T15:32:42.421Z,7.53
2019-03-16T15:35:09.535Z,8.30
2019-03-16T15:37:36.864Z,7.40
2019-03-16T15:40:04.248Z,7.28
2019-03-16T15:42:31.511Z,7.35
2019-03-16T15:44:58.561Z,7.67
2019-03-16T15:47:25.693Z,7.97
2019-03-16T15:49:53.291Z,8.58
2019-03-16T15:52:20.326Z,7.78
2019-03-16T15:54:47.391Z,7.75
2019-03-16T15:57:14.473Z,7.47
2019-03-16T15:59:41.586Z,7.72
2019-03-16T16:02:08.850Z,9.28
2019-03-16T16:04:36.285Z,8.03
2019-03-16T16:07:03.601Z,8.93
2019-03-16T16:09:31.191Z,9.43
2019-03-16T16:11:58.453Z,8.73
2019-03-16T16:14:25.567Z,10.60
2019-03-16T16:16:52.578Z,13.50
2019-03-16T16:19:21.952Z,14.60
2019-03-16T16:21:49.272Z,13.55
2019-03-16T16:24:16.901Z,11.20
2019-03-16T16:26:43.974Z,11.12
2019-03-16T16:29:12.768Z,11.63
2019-03-16T16:31:39.984Z,12.47
2019-03-16T16:34:07.724Z,11.48
2019-03-16T16:36:34.941Z,11.30
2019-03-16T16:39:03.334Z,10.78
2019-03-16T16:41:30.684Z,11.10
2019-03-16T16:43:57.745Z,10.72
2019-03-16T16:46:25.987Z,10.20
2019-03-16T16:48:53.027Z,10.72
2019-03-16T16:51:20.547Z,12.05
2019-03-16T16:53:48.078Z,13.62
2019-03-16T16:56:15.462Z,11.43
2019-03-16T16:58:42.682Z,11.90
2019-03-16T17:01:10.039Z,11.75
2019-03-16T17:03:39.268Z,9.83
2019-03-16T17:06:06.909Z,10.15
2019-03-16T17:08:34.132Z,11.30
2019-03-16T17:11:02.469Z,9.08
2019-03-16T17:13:30.334Z,10.23
2019-03-16T17:15:58.761Z,9.23
2019-03-16T17:18:27.620Z,10.00
2019-03-16T17:20:54.757Z,9.58
2019-03-16T17:23:22.315Z,9.88
2019-03-16T17:25:49.858Z,10.10
2019-03-16T17:28:16.931Z,9.00
2019-03-16T17:30:44.091Z,9.55
2019-03-16T17:33:11.513Z,9.60
2019-03-16T17:35:38.540Z,10.32
2019-03-16T17:38:05.889Z,8.93
2019-03-16T17:40:33.035Z,9.78
2019-03-16T17:43:00.075Z,11.20
2019-03-16T17:45:27.458Z,8.58
2019-03-16T17:47:54.652Z,9.18
2019-03-16T17:50:22.251Z,6.95
2019-03-16T17:52:49.591Z,8.00
2019-03-16T17:55:16.930Z,8.13
2019-03-16T17:57:45.480Z,8.03
2019-03-16T18:00:13.098Z,7.12
2019-03-16T18:02:51.394Z,9.05
2019-03-16T18:05:10.489Z,8.70
2019-03-16T18:07:37.657Z,9.33
2019-03-16T18:10:04.933Z,7.75
2019-03-16T18:12:32.094Z,7.87
2019-03-16T18:14:59.185Z,8.63
2019-03-16T18:17:26.427Z,7.80
2019-03-16T18:19:53.772Z,7.50
2019-03-16T18:22:20.898Z,8.08
2019-03-16T18:24:48.591Z,8.13
2019-03-16T18:27:16.130Z,7.10
2019-03-16T18:29:43.236Z,7.85
2019-03-16T18:32:11.403Z,7.28
2019-03-16T18:34:38.415Z,7.25
2019-03-16T18:37:05.595Z,7.05
2019-03-16T18:39:32.716Z,7.30
2019-03-16T18:42:00.277Z,9.15
2019-03-16T18:44:27.814Z,8.90
2019-03-16T18:46:55.191Z,7.05
2019-03-16T18:49:22.291Z,6.35
2019-03-16T18:51:49.659Z,6.92
2019-03-16T18:54:17.254Z,6.87
2019-03-16T18:56:44.358Z,7.85
2019-03-16T18:59:11.721Z,6.33
2019-03-16T19:01:38.837Z,6.58
2019-03-16T19:04:06.207Z,7.30
2019-03-16T19:06:33.379Z,5.70
2019-03-16T19:09:00.570Z,6.10
2019-03-16T19:11:27.966Z,5.90
2019-03-16T19:13:55.169Z,5.00
2019-03-16T19:16:22.611Z,5.03
2019-03-16T19:18:49.735Z,5.35
2019-03-16T19:21:16.743Z,5.12
2019-03-16T19:23:43.860Z,4.40
2019-03-16T19:26:11.035Z,5.20
2019-03-16T19:28:38.152Z,4.97
2019-03-16T19:31:05.670Z,5.37
2019-03-16T19:33:32.699Z,5.67
2019-03-16T19:36:00.042Z,5.00
2019-03-16T19:38:28.194Z,4.33
2019-03-16T19:40:55.584Z,4.00
2019-03-16T19:43:23.791Z,4.00
2019-03-16T19:45:50.893Z,3.95
2019-03-16T19:48:18.314Z,4.12
2019-03-16T19:50:45.474Z,5.17
2019-03-16T19:53:12.716Z,4.30
2019-03-16T19:55:39.929Z,5.40
2019-03-16T19:58:06.952Z,4.22
2019-03-16T20:00:34.379Z,5.50
2019-03-16T20:03:02.613Z,3.45
2019-03-16T20:05:30.010Z,5.92
2019-03-16T20:07:57.108Z,5.78
2019-03-16T20:10:24.475Z,5.42
2019-03-16T20:12:53.187Z,5.58
2019-03-16T20:15:21.098Z,4.85
2019-03-16T20:17:48.350Z,4.28
2019-03-16T20:20:15.627Z,4.20
2019-03-16T20:22:43.863Z,4.83
2019-03-16T20:25:11.247Z,7.00
2019-03-16T20:27:38.524Z,6.33
2019-03-16T20:30:06.543Z,5.75
2019-03-16T20:32:33.613Z,4.78
2019-03-16T20:35:00.657Z,3.87
2019-03-16T20:37:27.810Z,4.45
2019-03-16T20:39:54.856Z,4.80
2019-03-16T20:42:22.022Z,4.87
2019-03-16T20:44:49.129Z,3.65
2019-03-16T20:47:16.469Z,3.95
2019-03-16T20:49:43.486Z,4.47
2019-03-16T20:52:10.511Z,3.10
2019-03-16T20:54:37.496Z,2.98
2019-03-16T20:57:04.563Z,2.98
2019-03-16T20:59:31.571Z,3.25
2019-03-16T21:01:58.640Z,3.60
2019-03-16T21:04:25.700Z,2.98
2019-03-16T21:06:55.968Z,3.90
2019-03-16T21:09:22.979Z,3.90
2019-03-16T21:11:49.990Z,4.47
2019-03-16T21:14:17.443Z,4.22
2019-03-16T21:16:44.849Z,4.72
2019-03-16T21:19:11.879Z,5.00
2019-03-16T21:21:39.329Z,5.53
2019-03-16T21:24:07.554Z,5.90
2019-03-16T21:26:35.098Z,4.78
2019-03-16T21:29:02.369Z,4.92
2019-03-16T21:31:29.620Z,5.70
2019-03-16T21:33:56.998Z,3.83
2019-03-16T21:36:24.030Z,3.95
2019-03-16T21:38:51.182Z,3.85
2019-03-16T21:41:18.642Z,3.98
2019-03-16T21:43:46.201Z,4.28
2019-03-16T21:46:14.388Z,5.12
2019-03-16T21:48:41.598Z,3.35
2019-03-16T21:51:08.729Z,4.30
2019-03-16T21:53:35.827Z,5.33
2019-03-16T21:56:03.662Z,4.97
2019-03-16T21:58:30.800Z,5.10
2019-03-16T22:00:58.002Z,4.37
2019-03-16T22:03:25.039Z,4.00
2019-03-16T22:05:52.160Z,4.17
2019-03-16T22:08:19.524Z,4.55
2019-03-16T22:10:46.691Z,2.87
2019-03-16T22:13:13.768Z,4.10
2019-03-16T22:15:40.907Z,3.83
2019-03-16T22:18:08.290Z,3.90
2019-03-16T22:20:35.275Z,4.78
2019-03-16T22:23:02.323Z,3.45
2019-03-16T22:25:29.655Z,3.58
2019-03-16T22:27:56.775Z,7.62
2019-03-16T22:30:23.889Z,4.95
2019-03-16T22:32:51.104Z,3.98
2019-03-16T22:35:18.414Z,3.77
2019-03-16T22:37:46.551Z,5.25
2019-03-16T22:40:13.639Z,4.42
2019-03-16T22:42:40.796Z,4.12
2019-03-16T22:45:08.138Z,4.90
2019-03-16T22:47:35.208Z,4.05
2019-03-16T22:50:02.341Z,4.15
2019-03-16T22:52:29.668Z,4.03
2019-03-16T22:54:57.143Z,4.10
2019-03-16T22:57:24.304Z,4.30
2019-03-16T22:59:51.334Z,4.22
2019-03-16T23:02:18.388Z,3.92
2019-03-16T23:04:46.125Z,3.75
2019-03-16T23:07:13.601Z,4.55
2019-03-16T23:09:41.361Z,3.47
2019-03-16T23:12:08.872Z,3.30
2019-03-16T23:14:36.998Z,3.70
2019-03-16T23:17:05.334Z,3.60
2019-03-16T23:19:32.730Z,3.05
2019-03-16T23:21:59.744Z,3.40
2019-03-16T23:24:26.734Z,3.35
2019-03-16T23:26:54.151Z,3.42
2019-03-16T23:29:21.436Z,3.45
2019-03-16T23:31:48.511Z,3.40
2019-03-16T23:34:19.338Z,3.75
2019-03-16T23:36:44.723Z,3.42
2019-03-16T23:39:11.815Z,3.37
2019-03-16T23:41:38.806Z,3.98
2019-03-16T23:44:05.958Z,3.33
2019-03-16T23:46:33.004Z,3.77
2019-03-16T23:49:00.272Z,4.45
2019-03-16T23:51:27.243Z,3.50
2019-03-16T23:53:54.229Z,3.45
2019-03-16T23:56:21.218Z,4.05
2019-03-16T23:58:48.646Z,3.95
